createdAt,value
2024-02-02T00:01:25.976Z,9.98
2024-02-02T00:05:27.916Z,11.38
2024-02-02T00:09:29.966Z,5.68
2024-02-02T00:13:31.861Z,5.53
2024-02-02T00:17:36.098Z,6.03
2024-02-02T00:21:37.794Z,8.00
2024-02-02T00:25:39.646Z,5.63
2024-02-02T00:29:43.571Z,13.00
2024-02-02T00:33:45.440Z,10.23
2024-02-02T00:37:48.210Z,12.27
2024-02-02T00:41:50.154Z,8.23
2024-02-02T00:45:52.124Z,10.20
2024-02-02T00:49:53.994Z,6.13
2024-02-02T00:53:55.882Z,7.07
2024-02-02T00:57:57.624Z,10.73
2024-02-02T01:02:00.622Z,7.53
2024-02-02T01:06:02.527Z,8.00
2024-02-02T01:10:07.287Z,5.90
2024-02-02T01:14:09.254Z,7.60
2024-02-02T01:18:14.042Z,4.00
2024-02-02T01:22:16.243Z,9.20
2024-02-02T01:26:18.168Z,7.80
2024-02-02T01:30:21.496Z,6.32
2024-02-02T01:34:24.204Z,6.72
2024-02-02T01:38:26.203Z,6.47
2024-02-02T01:42:28.158Z,7.75
2024-02-02T01:46:30.251Z,13.93
2024-02-02T01:50:32.070Z,11.38
2024-02-02T01:54:34.637Z,8.35
2024-02-02T01:58:36.476Z,5.18
2024-02-02T02:02:39.211Z,5.68
2024-02-02T02:06:41.192Z,7.10
2024-02-02T02:10:44.580Z,7.63
2024-02-02T02:14:46.542Z,8.45
2024-02-02T02:18:55.838Z,6.93
2024-02-02T02:23:04.518Z,9.45
2024-02-02T02:27:06.559Z,6.03
2024-02-02T02:31:13.419Z,17.50
2024-02-02T02:35:15.200Z,10.63
2024-02-02T02:39:17.986Z,7.30
2024-02-02T02:43:19.865Z,6.28
2024-02-02T02:47:21.987Z,11.70
2024-02-02T02:51:23.946Z,8.63
2024-02-02T02:55:26.617Z,7.95
2024-02-02T02:59:29.808Z,13.95
2024-02-02T03:03:31.805Z,9.18
2024-02-02T03:07:33.742Z,9.93
2024-02-02T03:11:35.577Z,6.68
2024-02-02T03:15:40.815Z,7.05
2024-02-02T03:19:42.940Z,7.80
2024-02-02T03:23:44.762Z,9.07
2024-02-02T03:27:46.840Z,16.23
2024-02-02T03:31:48.716Z,8.52
2024-02-02T03:35:50.503Z,9.50
2024-02-02T03:39:52.464Z,10.68
2024-02-02T03:43:56.162Z,7.95
2024-02-02T03:48:00.766Z,7.63
2024-02-02T03:52:02.942Z,6.15
2024-02-02T03:56:05.782Z,6.10
2024-02-02T04:00:11.134Z,6.50
2024-02-02T04:04:16.375Z,10.23
2024-02-02T04:08:18.628Z,8.43
2024-02-02T04:12:20.709Z,7.07
2024-02-02T04:16:22.782Z,9.68
2024-02-02T04:20:25.170Z,11.43
2024-02-02T04:24:27.447Z,5.63
2024-02-02T04:28:30.471Z,11.23
2024-02-02T04:32:34.164Z,10.10
2024-02-02T04:36:36.553Z,8.93
2024-02-02T04:40:38.935Z,6.97
2024-02-02T04:44:42.450Z,8.43
2024-02-02T04:48:44.652Z,6.03
2024-02-02T04:52:46.724Z,7.57
2024-02-02T04:56:48.899Z,10.45
2024-02-02T05:00:51.100Z,9.90
2024-02-02T05:04:53.273Z,10.25
2024-02-02T05:08:55.239Z,9.32
2024-02-02T05:12:57.209Z,9.43
2024-02-02T05:17:00.175Z,7.85
2024-02-02T05:21:02.263Z,6.97
2024-02-02T05:25:05.898Z,8.90
2024-02-02T05:29:07.907Z,14.27
2024-02-02T05:33:10.213Z,11.40
2024-02-02T05:37:12.686Z,12.25
2024-02-02T05:41:14.794Z,9.18
2024-02-02T05:45:17.099Z,9.13
2024-02-02T05:49:19.587Z,13.38
2024-02-02T05:53:21.758Z,10.23
2024-02-02T05:57:24.058Z,9.40
2024-02-02T06:01:26.406Z,10.35
2024-02-02T06:05:30.879Z,12.25
2024-02-02T06:09:33.111Z,9.48
2024-02-02T06:13:35.402Z,7.10
2024-02-02T06:17:38.617Z,12.38
2024-02-02T06:21:40.863Z,6.05
2024-02-02T06:25:43.115Z,8.48
2024-02-02T06:29:45.328Z,6.18
2024-02-02T06:33:48.374Z,8.88
2024-02-02T06:37:50.340Z,6.25
2024-02-02T06:41:53.319Z,12.45
2024-02-02T06:45:56.383Z,10.15
2024-02-02T06:49:59.166Z,7.32
2024-02-02T06:54:01.924Z,9.85
2024-02-02T06:58:05.990Z,9.40
2024-02-02T07:02:20.762Z,11.98
2024-02-02T07:06:22.652Z,10.45
2024-02-02T07:10:24.655Z,12.38
2024-02-02T07:14:38.394Z,9.10
2024-02-02T07:18:41.972Z,13.38
2024-02-02T07:22:44.885Z,10.68
2024-02-02T07:26:46.673Z,14.65
2024-02-02T07:30:54.481Z,13.13
2024-02-02T07:34:59.164Z,8.45
2024-02-02T07:39:01.645Z,10.85
2024-02-02T07:43:03.631Z,16.23
2024-02-02T07:47:05.621Z,7.40
2024-02-02T07:51:08.456Z,10.63
2024-02-02T07:55:11.209Z,12.73
2024-02-02T07:59:13.123Z,12.35
2024-02-02T08:03:14.945Z,12.40
2024-02-02T08:07:17.357Z,12.25
2024-02-02T08:11:19.668Z,13.85
2024-02-02T08:15:21.565Z,11.32
2024-02-02T08:19:24.397Z,7.20
2024-02-02T08:23:27.109Z,6.63
2024-02-02T08:27:29.448Z,9.65
2024-02-02T08:31:31.594Z,11.70
2024-02-02T08:35:33.460Z,13.95
2024-02-02T08:39:43.102Z,14.60
2024-02-02T08:43:46.620Z,14.65
2024-02-02T08:47:49.432Z,11.77
2024-02-02T08:51:52.437Z,10.30
2024-02-02T08:55:57.889Z,14.18
2024-02-02T09:00:11.113Z,10.27
2024-02-02T09:04:52.946Z,19.27
2024-02-02T09:08:55.828Z,13.82
2024-02-02T09:13:01.903Z,14.02
2024-02-02T09:17:07.711Z,15.15
2024-02-02T09:21:09.642Z,12.60
2024-02-02T09:25:11.604Z,7.75
2024-02-02T09:29:13.745Z,6.15
2024-02-02T09:33:39.021Z,8.70
2024-02-02T09:37:49.276Z,10.00
2024-02-02T09:41:53.916Z,8.50
2024-02-02T09:46:14.416Z,9.55
2024-02-02T09:50:19.171Z,8.63
2024-02-02T09:54:21.142Z,10.07
2024-02-02T09:58:35.059Z,7.28
2024-02-02T10:02:48.772Z,6.97
2024-02-02T10:06:56.620Z,11.30
2024-02-02T10:11:26.221Z,10.50
2024-02-02T10:15:40.138Z,9.82
2024-02-02T10:19:59.028Z,10.20
2024-02-02T10:24:12.210Z,6.63
2024-02-02T10:28:34.753Z,13.85
2024-02-02T10:32:51.615Z,15.75
2024-02-02T10:37:02.806Z,11.90
2024-02-02T10:41:05.575Z,9.85
2024-02-02T10:45:11.826Z,11.93
2024-02-02T10:49:29.927Z,7.20
2024-02-02T10:53:42.589Z,9.10
2024-02-02T10:57:55.147Z,5.93
2024-02-02T11:02:06.415Z,9.77
2024-02-02T11:06:08.513Z,11.32
2024-02-02T11:10:12.806Z,11.50
2024-02-02T11:14:26.878Z,12.05
2024-02-02T11:18:47.343Z,11.57
2024-02-02T11:23:06.688Z,13.52
2024-02-02T11:27:09.541Z,11.93
2024-02-02T11:31:30.080Z,9.73
2024-02-02T11:35:46.273Z,8.07
2024-02-02T11:39:52.201Z,11.93
2024-02-02T11:43:54.721Z,9.85
2024-02-02T11:48:03.090Z,16.63
2024-02-02T11:52:08.731Z,13.23
2024-02-02T11:56:23.592Z,15.57
2024-02-02T12:00:34.528Z,13.20
2024-02-02T12:04:49.152Z,10.23
2024-02-02T12:08:51.366Z,8.18
2024-02-02T12:12:59.714Z,7.35
2024-02-02T12:17:01.729Z,5.18
2024-02-02T12:21:12.784Z,7.30
2024-02-02T12:25:15.818Z,8.05
2024-02-02T12:29:17.893Z,6.72
2024-02-02T12:33:22.072Z,6.00
2024-02-02T12:37:23.937Z,9.13
2024-02-02T12:41:25.972Z,8.77
2024-02-02T12:45:29.048Z,6.85
2024-02-02T12:49:31.043Z,7.07
2024-02-02T12:53:33.848Z,5.45
2024-02-02T12:57:37.408Z,7.28
2024-02-02T13:01:39.509Z,4.88
2024-02-02T13:05:41.505Z,7.50
2024-02-02T13:09:49.519Z,6.70
2024-02-02T13:13:51.266Z,5.93
2024-02-02T13:18:01.978Z,7.35
2024-02-02T13:22:04.649Z,6.82
2024-02-02T13:26:07.788Z,6.95
2024-02-02T13:30:14.455Z,6.30
2024-02-02T13:34:17.861Z,7.93
2024-02-02T13:38:21.815Z,6.10
2024-02-02T13:42:24.570Z,7.22
2024-02-02T13:46:27.463Z,6.00
2024-02-02T13:50:39.379Z,8.45
2024-02-02T13:54:41.766Z,6.57
2024-02-02T13:58:43.791Z,9.82
2024-02-02T14:02:45.630Z,8.18
2024-02-02T14:06:48.372Z,7.03
2024-02-02T14:10:50.366Z,5.38
2024-02-02T14:14:52.118Z,6.05
2024-02-02T14:19:04.181Z,5.18
2024-02-02T14:23:10.056Z,5.72
2024-02-02T14:27:11.840Z,4.57
2024-02-02T14:31:13.706Z,4.90
2024-02-02T14:35:15.837Z,4.60
2024-02-02T14:39:26.396Z,4.93
2024-02-02T14:43:28.812Z,6.75
2024-02-02T14:47:33.300Z,4.38
2024-02-02T14:51:35.288Z,5.93
2024-02-02T14:55:38.110Z,5.50
2024-02-02T14:59:43.336Z,4.60
2024-02-02T15:03:45.417Z,4.70
2024-02-02T15:07:48.080Z,4.07
2024-02-02T15:11:51.052Z,5.25
2024-02-02T15:15:53.013Z,5.00
2024-02-02T15:19:56.093Z,4.18
2024-02-02T15:23:58.465Z,3.75
2024-02-02T15:28:00.305Z,3.22
2024-02-02T15:32:02.486Z,5.95
2024-02-02T15:36:05.723Z,2.92
2024-02-02T15:40:08.818Z,4.55
2024-02-02T15:44:10.718Z,5.47
2024-02-02T15:48:15.963Z,3.63
2024-02-02T15:52:18.013Z,3.85
2024-02-02T15:56:25.473Z,2.88
2024-02-02T16:00:27.420Z,3.20
2024-02-02T16:04:29.784Z,3.72
2024-02-02T16:08:31.911Z,3.10
2024-02-02T16:12:38.190Z,3.20
2024-02-02T16:16:40.019Z,3.27
2024-02-02T16:20:41.915Z,3.97
2024-02-02T16:24:44.698Z,3.85
2024-02-02T16:28:46.548Z,4.35
2024-02-02T16:32:48.569Z,5.00
2024-02-02T16:36:50.683Z,4.55
2024-02-02T16:40:52.430Z,3.95
2024-02-02T16:44:54.336Z,3.78
2024-02-02T16:48:56.372Z,4.10
2024-02-02T16:52:58.247Z,3.33
2024-02-02T16:57:00.188Z,2.88
2024-02-02T17:01:02.449Z,2.17
2024-02-02T17:05:05.200Z,2.63
2024-02-02T17:09:08.108Z,2.67
2024-02-02T17:13:09.997Z,3.17
2024-02-02T17:17:11.872Z,4.18
2024-02-02T17:21:14.051Z,2.72
2024-02-02T17:25:16.820Z,4.38
2024-02-02T17:29:19.310Z,3.53
2024-02-02T17:33:21.847Z,4.78
2024-02-02T17:37:23.855Z,5.90
2024-02-02T17:41:25.599Z,6.63
2024-02-02T17:45:27.526Z,4.05
2024-02-02T17:49:37.778Z,4.38
2024-02-02T17:57:48.720Z,2.58
2024-02-02T18:01:50.703Z,2.22
2024-02-02T18:05:52.786Z,2.88
2024-02-02T18:09:54.615Z,2.83
2024-02-02T18:13:57.850Z,2.25
2024-02-02T18:17:59.849Z,2.15
2024-02-02T18:22:01.846Z,2.20
2024-02-02T18:26:05.302Z,1.80
2024-02-02T18:30:07.651Z,3.83
2024-02-02T18:34:09.838Z,1.75
2024-02-02T18:38:12.604Z,3.35
2024-02-02T18:42:14.412Z,1.50
2024-02-02T18:46:23.492Z,3.92
2024-02-02T18:50:25.331Z,1.77
2024-02-02T18:54:27.134Z,1.58
2024-02-02T18:58:35.741Z,3.33
2024-02-02T19:02:42.074Z,5.45
2024-02-02T19:06:44.211Z,3.08
2024-02-02T19:10:46.117Z,3.80
2024-02-02T19:14:47.949Z,6.30
2024-02-02T19:18:50.242Z,18.27
2024-02-02T19:22:53.036Z,14.70
2024-02-02T19:26:56.047Z,15.65
2024-02-02T19:30:57.858Z,13.68
2024-02-02T19:34:59.721Z,7.13
2024-02-02T19:39:02.631Z,6.50
2024-02-02T19:43:04.532Z,4.15
2024-02-02T19:47:06.567Z,4.20
2024-02-02T19:51:08.492Z,3.22
2024-02-02T19:55:10.264Z,6.10
2024-02-02T19:59:14.248Z,4.40
2024-02-02T20:03:16.482Z,3.90
2024-02-02T20:07:18.956Z,4.97
2024-02-02T20:11:21.661Z,5.65
2024-02-02T20:15:23.603Z,6.28
2024-02-02T20:19:26.349Z,4.43
2024-02-02T20:23:28.272Z,4.95
2024-02-02T20:27:30.857Z,4.47
2024-02-02T20:31:32.738Z,4.43
2024-02-02T20:35:34.925Z,4.78
2024-02-02T20:39:37.095Z,7.15
2024-02-02T20:43:39.807Z,7.75
2024-02-02T20:47:41.597Z,5.82
2024-02-02T20:51:44.545Z,3.92
2024-02-02T20:55:46.357Z,3.58
2024-02-02T20:59:48.405Z,2.83
2024-02-02T21:03:50.346Z,2.35
2024-02-02T21:07:53.188Z,4.13
2024-02-02T21:11:55.236Z,2.03
2024-02-02T21:15:57.095Z,4.38
2024-02-02T21:19:59.489Z,2.65
2024-02-02T21:24:01.382Z,1.92
2024-02-02T21:28:03.917Z,2.85
2024-02-02T21:32:05.828Z,3.17
2024-02-02T21:36:08.189Z,3.50
2024-02-02T21:40:13.182Z,3.35
2024-02-02T21:44:15.206Z,3.42
2024-02-02T21:48:17.324Z,2.83
2024-02-02T21:52:19.367Z,2.80
2024-02-02T21:56:21.209Z,2.83
2024-02-02T22:00:23.819Z,3.40
2024-02-02T22:04:26.522Z,3.25
2024-02-02T22:08:28.548Z,2.83
2024-02-02T22:12:30.565Z,2.97
2024-02-02T22:16:33.053Z,4.93
2024-02-02T22:20:34.822Z,2.42
2024-02-02T22:24:38.783Z,1.83
2024-02-02T22:28:40.599Z,2.15
2024-02-02T22:32:42.572Z,3.05
2024-02-02T22:36:44.562Z,1.40
2024-02-02T22:40:47.292Z,3.03
2024-02-02T22:44:49.076Z,1.30
2024-02-02T22:48:53.221Z,1.33
2024-02-02T22:52:55.137Z,3.22
2024-02-02T22:56:56.975Z,2.97
2024-02-02T23:00:58.895Z,1.65
2024-02-02T23:05:01.612Z,2.53
2024-02-02T23:09:03.654Z,2.33
2024-02-02T23:13:06.209Z,3.50
2024-02-02T23:17:08.038Z,2.63
2024-02-02T23:21:09.978Z,1.95
2024-02-02T23:25:11.835Z,2.38
2024-02-02T23:29:13.970Z,1.30
2024-02-02T23:33:16.110Z,3.10
2024-02-02T23:37:18.071Z,2.78
2024-02-02T23:41:20.717Z,4.88
2024-02-02T23:45:22.746Z,2.33
2024-02-02T23:49:24.647Z,2.72
2024-02-02T23:53:26.532Z,3.38
2024-02-02T23:57:28.465Z,3.33
